sensor_id;sensor_type;location;lat;lon;timestamp;temperature;humidity
47482;DHT22;33219;47.410;9.730;2023-11-21T00:00:51;8.50;99.90
47482;DHT22;33219;47.410;9.730;2023-11-21T00:03:18;8.50;99.90
47482;DHT22;33219;47.410;9.730;2023-11-21T00:05:45;8.50;99.90
47482;DHT22;33219;47.410;9.730;2023-11-21T00:08:11;8.50;99.90
47482;DHT22;33219;47.410;9.730;2023-11-21T00:10:38;8.50;99.90
47482;DHT22;33219;47.410;9.730;2023-11-21T00:13:05;8.50;99.90
47482;DHT22;33219;47.410;9.730;2023-11-21T00:15:33;8.50;99.90
47482;DHT22;33219;47.410;9.730;2023-11-21T00:18:00;8.50;99.90
47482;DHT22;33219;47.410;9.730;2023-11-21T00:20:27;8.60;99.90
47482;DHT22;33219;47.410;9.730;2023-11-21T00:22:54;8.60;99.90
47482;DHT22;33219;47.410;9.730;2023-11-21T00:25:20;8.50;99.90
47482;DHT22;33219;47.410;9.730;2023-11-21T00:27:48;8.60;99.90
47482;DHT22;33219;47.410;9.730;2023-11-21T00:30:15;8.60;99.90
47482;DHT22;33219;47.410;9.730;2023-11-21T00:32:41;8.60;99.90
47482;DHT22;33219;47.410;9.730;2023-11-21T00:35:09;8.50;99.90
47482;DHT22;33219;47.410;9.730;2023-11-21T00:37:36;8.50;99.90
47482;DHT22;33219;47.410;9.730;2023-11-21T00:40:05;8.50;99.90
47482;DHT22;33219;47.410;9.730;2023-11-21T00:42:32;8.50;99.90
47482;DHT22;33219;47.410;9.730;2023-11-21T00:45:00;8.50;99.90
47482;DHT22;33219;47.410;9.730;2023-11-21T00:47:27;8.50;99.90
47482;DHT22;33219;47.410;9.730;2023-11-21T00:49:54;8.50;99.90
47482;DHT22;33219;47.410;9.730;2023-11-21T00:52:21;8.50;99.90
47482;DHT22;33219;47.410;9.730;2023-11-21T00:54:48;8.50;99.90
47482;DHT22;33219;47.410;9.730;2023-11-21T00:57:18;8.40;99.90
47482;DHT22;33219;47.410;9.730;2023-11-21T00:59:45;8.50;99.90
47482;DHT22;33219;47.410;9.730;2023-11-21T01:02:12;8.40;99.90
47482;DHT22;33219;47.410;9.730;2023-11-21T01:04:39;8.40;99.90
47482;DHT22;33219;47.410;9.730;2023-11-21T01:07:06;8.40;99.90
47482;DHT22;33219;47.410;9.730;2023-11-21T01:09:33;8.40;99.90
47482;DHT22;33219;47.410;9.730;2023-11-21T01:12:00;8.40;99.90
47482;DHT22;33219;47.410;9.730;2023-11-21T01:14:27;8.40;99.90
47482;DHT22;33219;47.410;9.730;2023-11-21T01:16:53;8.40;99.90
47482;DHT22;33219;47.410;9.730;2023-11-21T01:19:20;8.40;99.90
47482;DHT22;33219;47.410;9.730;2023-11-21T01:21:47;8.40;99.90
47482;DHT22;33219;47.410;9.730;2023-11-21T01:24:14;8.30;99.90
47482;DHT22;33219;47.410;9.730;2023-11-21T01:26:41;8.40;99.90
47482;DHT22;33219;47.410;9.730;2023-11-21T01:29:08;8.30;99.90
47482;DHT22;33219;47.410;9.730;2023-11-21T01:31:34;8.30;99.90
47482;DHT22;33219;47.410;9.730;2023-11-21T01:34:01;8.30;99.90
47482;DHT22;33219;47.410;9.730;2023-11-21T01:36:32;8.40;99.90
47482;DHT22;33219;47.410;9.730;2023-11-21T01:38:59;8.40;99.90
47482;DHT22;33219;47.410;9.730;2023-11-21T01:41:30;8.40;99.90
47482;DHT22;33219;47.410;9.730;2023-11-21T01:43:54;8.40;99.90
47482;DHT22;33219;47.410;9.730;2023-11-21T01:46:22;8.40;99.90
47482;DHT22;33219;47.410;9.730;2023-11-21T01:48:50;8.30;99.90
47482;DHT22;33219;47.410;9.730;2023-11-21T01:51:17;8.30;99.90
47482;DHT22;33219;47.410;9.730;2023-11-21T01:53:44;8.30;99.90
47482;DHT22;33219;47.410;9.730;2023-11-21T01:56:12;8.20;99.90
47482;DHT22;33219;47.410;9.730;2023-11-21T01:58:40;8.30;99.90
47482;DHT22;33219;47.410;9.730;2023-11-21T02:01:07;8.40;99.90
47482;DHT22;33219;47.410;9.730;2023-11-21T02:03:35;8.40;99.90
47482;DHT22;33219;47.410;9.730;2023-11-21T02:06:02;8.30;99.90
47482;DHT22;33219;47.410;9.730;2023-11-21T02:08:29;8.30;99.90
47482;DHT22;33219;47.410;9.730;2023-11-21T02:10:57;8.30;99.90
47482;DHT22;33219;47.410;9.730;2023-11-21T02:13:24;8.30;99.90
47482;DHT22;33219;47.410;9.730;2023-11-21T02:15:50;8.30;99.90
47482;DHT22;33219;47.410;9.730;2023-11-21T02:18:19;8.30;99.90
47482;DHT22;33219;47.410;9.730;2023-11-21T02:20:47;8.30;99.90
47482;DHT22;33219;47.410;9.730;2023-11-21T02:23:14;8.30;99.90
47482;DHT22;33219;47.410;9.730;2023-11-21T02:25:42;8.30;99.90
47482;DHT22;33219;47.410;9.730;2023-11-21T02:28:08;8.30;99.90
47482;DHT22;33219;47.410;9.730;2023-11-21T02:30:37;8.30;99.90
47482;DHT22;33219;47.410;9.730;2023-11-21T02:33:04;8.40;99.90
47482;DHT22;33219;47.410;9.730;2023-11-21T02:35:32;8.30;99.90
47482;DHT22;33219;47.410;9.730;2023-11-21T02:37:59;8.40;99.90
47482;DHT22;33219;47.410;9.730;2023-11-21T02:40:25;8.30;99.90
47482;DHT22;33219;47.410;9.730;2023-11-21T02:42:52;8.30;99.90
47482;DHT22;33219;47.410;9.730;2023-11-21T02:45:19;8.20;99.90
47482;DHT22;33219;47.410;9.730;2023-11-21T02:47:50;8.20;99.90
47482;DHT22;33219;47.410;9.730;2023-11-21T02:50:18;8.10;99.90
47482;DHT22;33219;47.410;9.730;2023-11-21T02:52:46;8.10;99.90
47482;DHT22;33219;47.410;9.730;2023-11-21T02:55:13;8.00;99.90
47482;DHT22;33219;47.410;9.730;2023-11-21T02:57:39;8.00;99.90
47482;DHT22;33219;47.410;9.730;2023-11-21T03:00:06;8.00;99.90
47482;DHT22;33219;47.410;9.730;2023-11-21T03:02:33;7.90;99.90
47482;DHT22;33219;47.410;9.730;2023-11-21T03:05:02;7.90;99.90
47482;DHT22;33219;47.410;9.730;2023-11-21T03:07:31;7.90;99.90
47482;DHT22;33219;47.410;9.730;2023-11-21T03:09:58;7.90;99.90
47482;DHT22;33219;47.410;9.730;2023-11-21T03:12:24;7.90;99.90
47482;DHT22;33219;47.410;9.730;2023-11-21T03:14:51;7.90;99.90
47482;DHT22;33219;47.410;9.730;2023-11-21T03:17:20;7.90;99.90
47482;DHT22;33219;47.410;9.730;2023-11-21T03:19:47;7.90;99.90
47482;DHT22;33219;47.410;9.730;2023-11-21T03:22:13;7.90;99.90
47482;DHT22;33219;47.410;9.730;2023-11-21T03:24:40;7.90;99.90
47482;DHT22;33219;47.410;9.730;2023-11-21T03:27:07;7.90;99.90
47482;DHT22;33219;47.410;9.730;2023-11-21T03:29:34;7.90;99.90
47482;DHT22;33219;47.410;9.730;2023-11-21T03:32:01;7.80;99.90
47482;DHT22;33219;47.410;9.730;2023-11-21T03:34:28;7.80;99.90
47482;DHT22;33219;47.410;9.730;2023-11-21T03:36:54;7.80;99.90
47482;DHT22;33219;47.410;9.730;2023-11-21T03:39:21;7.80;99.90
47482;DHT22;33219;47.410;9.730;2023-11-21T03:41:48;7.80;99.90
47482;DHT22;33219;47.410;9.730;2023-11-21T03:44:15;7.70;99.90
47482;DHT22;33219;47.410;9.730;2023-11-21T03:46:43;7.70;99.90
47482;DHT22;33219;47.410;9.730;2023-11-21T03:49:10;7.70;99.90
47482;DHT22;33219;47.410;9.730;2023-11-21T03:51:37;7.70;99.90
47482;DHT22;33219;47.410;9.730;2023-11-21T03:54:04;7.70;99.90
47482;DHT22;33219;47.410;9.730;2023-11-21T03:56:30;7.70;99.90
47482;DHT22;33219;47.410;9.730;2023-11-21T03:58:57;7.70;99.90
47482;DHT22;33219;47.410;9.730;2023-11-21T04:01:24;7.70;99.90
47482;DHT22;33219;47.410;9.730;2023-11-21T04:03:51;7.70;99.90
47482;DHT22;33219;47.410;9.730;2023-11-21T04:06:18;7.70;99.90
47482;DHT22;33219;47.410;9.730;2023-11-21T04:08:45;7.70;99.90
47482;DHT22;33219;47.410;9.730;2023-11-21T04:11:12;7.70;99.90
47482;DHT22;33219;47.410;9.730;2023-11-21T04:13:40;7.70;99.90
47482;DHT22;33219;47.410;9.730;2023-11-21T04:16:08;7.70;99.90
47482;DHT22;33219;47.410;9.730;2023-11-21T04:18:36;7.60;99.90
47482;DHT22;33219;47.410;9.730;2023-11-21T04:21:04;7.60;99.90
47482;DHT22;33219;47.410;9.730;2023-11-21T04:23:31;7.50;99.90
47482;DHT22;33219;47.410;9.730;2023-11-21T04:25:58;7.50;99.90
47482;DHT22;33219;47.410;9.730;2023-11-21T04:28:24;7.40;99.90
47482;DHT22;33219;47.410;9.730;2023-11-21T04:30:51;7.40;99.90
47482;DHT22;33219;47.410;9.730;2023-11-21T04:33:18;7.40;99.90
47482;DHT22;33219;47.410;9.730;2023-11-21T04:35:45;7.30;99.90
47482;DHT22;33219;47.410;9.730;2023-11-21T04:38:12;7.20;99.90
47482;DHT22;33219;47.410;9.730;2023-11-21T04:40:39;7.20;99.90
47482;DHT22;33219;47.410;9.730;2023-11-21T04:43:06;7.20;99.90
47482;DHT22;33219;47.410;9.730;2023-11-21T04:45:34;7.10;99.90
47482;DHT22;33219;47.410;9.730;2023-11-21T04:48:00;7.10;99.90
47482;DHT22;33219;47.410;9.730;2023-11-21T04:50:27;7.00;99.90
47482;DHT22;33219;47.410;9.730;2023-11-21T04:52:54;7.00;99.90
47482;DHT22;33219;47.410;9.730;2023-11-21T04:55:21;7.00;99.90
47482;DHT22;33219;47.410;9.730;2023-11-21T04:57:48;6.90;99.90
47482;DHT22;33219;47.410;9.730;2023-11-21T05:00:15;6.90;99.90
47482;DHT22;33219;47.410;9.730;2023-11-21T05:02:42;6.90;99.90
47482;DHT22;33219;47.410;9.730;2023-11-21T05:05:10;6.90;99.90
47482;DHT22;33219;47.410;9.730;2023-11-21T05:07:37;6.90;99.90
47482;DHT22;33219;47.410;9.730;2023-11-21T05:10:04;6.90;99.90
47482;DHT22;33219;47.410;9.730;2023-11-21T05:12:33;6.90;99.90
47482;DHT22;33219;47.410;9.730;2023-11-21T05:15:04;6.80;99.90
47482;DHT22;33219;47.410;9.730;2023-11-21T05:17:35;6.70;99.90
47482;DHT22;33219;47.410;9.730;2023-11-21T05:20:03;6.70;99.90
47482;DHT22;33219;47.410;9.730;2023-11-21T05:22:32;6.70;99.90
47482;DHT22;33219;47.410;9.730;2023-11-21T05:24:59;6.70;99.90
47482;DHT22;33219;47.410;9.730;2023-11-21T05:27:25;6.70;99.90
47482;DHT22;33219;47.410;9.730;2023-11-21T05:29:52;6.60;99.90
47482;DHT22;33219;47.410;9.730;2023-11-21T05:32:19;6.60;99.90
47482;DHT22;33219;47.410;9.730;2023-11-21T05:34:46;6.60;99.90
47482;DHT22;33219;47.410;9.730;2023-11-21T05:37:13;6.50;99.90
47482;DHT22;33219;47.410;9.730;2023-11-21T05:39:40;6.50;99.90
47482;DHT22;33219;47.410;9.730;2023-11-21T05:42:07;6.60;99.90
47482;DHT22;33219;47.410;9.730;2023-11-21T05:44:35;6.50;99.90
47482;DHT22;33219;47.410;9.730;2023-11-21T05:47:03;6.50;99.90
47482;DHT22;33219;47.410;9.730;2023-11-21T05:49:31;6.50;99.90
47482;DHT22;33219;47.410;9.730;2023-11-21T05:51:58;6.50;99.90
47482;DHT22;33219;47.410;9.730;2023-11-21T05:54:25;6.50;99.90
47482;DHT22;33219;47.410;9.730;2023-11-21T05:56:52;6.40;99.90
47482;DHT22;33219;47.410;9.730;2023-11-21T05:59:19;6.30;99.90
47482;DHT22;33219;47.410;9.730;2023-11-21T06:01:46;6.30;99.90
47482;DHT22;33219;47.410;9.730;2023-11-21T06:04:13;6.40;99.90
47482;DHT22;33219;47.410;9.730;2023-11-21T06:06:40;6.30;99.90
47482;DHT22;33219;47.410;9.730;2023-11-21T06:09:07;6.30;99.90
47482;DHT22;33219;47.410;9.730;2023-11-21T06:11:36;6.20;99.90
47482;DHT22;33219;47.410;9.730;2023-11-21T06:14:03;6.20;99.90
47482;DHT22;33219;47.410;9.730;2023-11-21T06:16:30;6.20;99.90
47482;DHT22;33219;47.410;9.730;2023-11-21T06:18:56;6.10;99.90
47482;DHT22;33219;47.410;9.730;2023-11-21T06:21:23;6.10;99.90
47482;DHT22;33219;47.410;9.730;2023-11-21T06:23:50;6.10;99.90
47482;DHT22;33219;47.410;9.730;2023-11-21T06:26:18;6.10;99.90
47482;DHT22;33219;47.410;9.730;2023-11-21T06:28:46;6.00;99.90
47482;DHT22;33219;47.410;9.730;2023-11-21T06:31:13;6.00;99.90
47482;DHT22;33219;47.410;9.730;2023-11-21T06:33:40;6.00;99.90
47482;DHT22;33219;47.410;9.730;2023-11-21T06:36:07;6.00;99.90
47482;DHT22;33219;47.410;9.730;2023-11-21T06:38:37;6.00;99.90
47482;DHT22;33219;47.410;9.730;2023-11-21T06:41:09;6.10;99.90
47482;DHT22;33219;47.410;9.730;2023-11-21T06:43:40;6.10;99.90
47482;DHT22;33219;47.410;9.730;2023-11-21T06:46:10;6.10;99.90
47482;DHT22;33219;47.410;9.730;2023-11-21T06:48:39;6.10;99.90
47482;DHT22;33219;47.410;9.730;2023-11-21T06:51:08;6.10;99.90
47482;DHT22;33219;47.410;9.730;2023-11-21T06:53:37;6.10;99.90
47482;DHT22;33219;47.410;9.730;2023-11-21T06:56:14;6.10;99.90
47482;DHT22;33219;47.410;9.730;2023-11-21T06:58:36;6.00;99.90
47482;DHT22;33219;47.410;9.730;2023-11-21T07:01:07;6.00;99.90
47482;DHT22;33219;47.410;9.730;2023-11-21T07:03:38;6.00;99.90
47482;DHT22;33219;47.410;9.730;2023-11-21T07:06:11;6.00;99.90
47482;DHT22;33219;47.410;9.730;2023-11-21T07:08:44;6.10;99.90
47482;DHT22;33219;47.410;9.730;2023-11-21T07:11:15;6.00;99.90
47482;DHT22;33219;47.410;9.730;2023-11-21T07:13:47;6.10;99.90
47482;DHT22;33219;47.410;9.730;2023-11-21T07:16:18;6.10;99.90
47482;DHT22;33219;47.410;9.730;2023-11-21T07:21:37;6.20;99.90
47482;DHT22;33219;47.410;9.730;2023-11-21T07:24:18;6.20;99.90
47482;DHT22;33219;47.410;9.730;2023-11-21T07:26:51;6.20;99.90
47482;DHT22;33219;47.410;9.730;2023-11-21T07:29:26;6.30;99.90
47482;DHT22;33219;47.410;9.730;2023-11-21T07:31:57;6.30;99.90
47482;DHT22;33219;47.410;9.730;2023-11-21T07:34:28;6.30;99.90
47482;DHT22;33219;47.410;9.730;2023-11-21T07:37:00;6.40;99.90
47482;DHT22;33219;47.410;9.730;2023-11-21T07:39:31;6.40;99.90
47482;DHT22;33219;47.410;9.730;2023-11-21T07:42:03;6.50;99.90
47482;DHT22;33219;47.410;9.730;2023-11-21T07:44:34;6.60;99.90
47482;DHT22;33219;47.410;9.730;2023-11-21T07:47:04;6.60;99.90
47482;DHT22;33219;47.410;9.730;2023-11-21T07:49:44;6.60;99.90
47482;DHT22;33219;47.410;9.730;2023-11-21T07:52:28;6.60;99.90
47482;DHT22;33219;47.410;9.730;2023-11-21T07:54:56;6.70;99.90
47482;DHT22;33219;47.410;9.730;2023-11-21T07:57:23;6.70;99.90
47482;DHT22;33219;47.410;9.730;2023-11-21T07:59:52;6.70;99.90
47482;DHT22;33219;47.410;9.730;2023-11-21T08:02:23;6.80;99.90
47482;DHT22;33219;47.410;9.730;2023-11-21T08:04:52;6.70;99.90
47482;DHT22;33219;47.410;9.730;2023-11-21T08:07:20;6.80;99.90
47482;DHT22;33219;47.410;9.730;2023-11-21T08:09:50;6.70;99.90
47482;DHT22;33219;47.410;9.730;2023-11-21T08:12:21;6.70;99.90
47482;DHT22;33219;47.410;9.730;2023-11-21T08:15:11;6.70;99.90
47482;DHT22;33219;47.410;9.730;2023-11-21T08:22:54;6.80;99.90
47482;DHT22;33219;47.410;9.730;2023-11-21T08:25:44;6.80;99.90
47482;DHT22;33219;47.410;9.730;2023-11-21T08:28:37;6.80;99.90
47482;DHT22;33219;47.410;9.730;2023-11-21T08:37:08;6.70;99.90
47482;DHT22;33219;47.410;9.730;2023-11-21T08:48:50;6.80;99.90
47482;DHT22;33219;47.410;9.730;2023-11-21T08:51:36;6.80;99.90
47482;DHT22;33219;47.410;9.730;2023-11-21T08:57:06;6.70;99.90
47482;DHT22;33219;47.410;9.730;2023-11-21T09:20:39;6.70;99.90
47482;DHT22;33219;47.410;9.730;2023-11-21T09:29:08;6.90;99.90
47482;DHT22;33219;47.410;9.730;2023-11-21T09:40:36;7.20;99.90
47482;DHT22;33219;47.410;9.730;2023-11-21T09:49:22;7.60;99.90
47482;DHT22;33219;47.410;9.730;2023-11-21T10:24:05;8.60;99.90
47482;DHT22;33219;47.410;9.730;2023-11-21T10:26:48;8.70;99.90
47482;DHT22;33219;47.410;9.730;2023-11-21T10:32:43;8.70;99.90
47482;DHT22;33219;47.410;9.730;2023-11-21T10:35:20;8.60;99.90
47482;DHT22;33219;47.410;9.730;2023-11-21T10:44:19;8.40;99.90
47482;DHT22;33219;47.410;9.730;2023-11-21T11:37:29;8.40;99.90
47482;DHT22;33219;47.410;9.730;2023-11-21T11:43:01;8.50;99.90
47482;DHT22;33219;47.410;9.730;2023-11-21T11:45:35;8.40;99.90
47482;DHT22;33219;47.410;9.730;2023-11-21T11:53:41;8.60;99.90
47482;DHT22;33219;47.410;9.730;2023-11-21T11:56:24;8.90;99.90
47482;DHT22;33219;47.410;9.730;2023-11-21T12:01:46;8.80;99.90
47482;DHT22;33219;47.410;9.730;2023-11-21T12:07:07;8.70;99.90
47482;DHT22;33219;47.410;9.730;2023-11-21T12:09:37;8.70;99.90
47482;DHT22;33219;47.410;9.730;2023-11-21T12:12:09;8.80;99.90
47482;DHT22;33219;47.410;9.730;2023-11-21T12:14:41;8.70;99.90
47482;DHT22;33219;47.410;9.730;2023-11-21T12:17:13;8.70;99.90
47482;DHT22;33219;47.410;9.730;2023-11-21T12:19:44;8.80;99.90
47482;DHT22;33219;47.410;9.730;2023-11-21T12:22:15;8.60;99.90
47482;DHT22;33219;47.410;9.730;2023-11-21T12:24:46;8.70;99.90
47482;DHT22;33219;47.410;9.730;2023-11-21T12:29:58;8.60;99.90
47482;DHT22;33219;47.410;9.730;2023-11-21T12:32:28;8.60;99.90
47482;DHT22;33219;47.410;9.730;2023-11-21T12:37:50;8.80;99.90
47482;DHT22;33219;47.410;9.730;2023-11-21T12:46:14;9.00;99.90
47482;DHT22;33219;47.410;9.730;2023-11-21T12:48:48;9.00;99.90
47482;DHT22;33219;47.410;9.730;2023-11-21T12:51:28;9.10;99.90
47482;DHT22;33219;47.410;9.730;2023-11-21T12:54:03;9.20;99.90
47482;DHT22;33219;47.410;9.730;2023-11-21T12:56:39;9.30;99.90
47482;DHT22;33219;47.410;9.730;2023-11-21T12:59:06;9.30;99.90
47482;DHT22;33219;47.410;9.730;2023-11-21T13:04:34;9.10;99.90
47482;DHT22;33219;47.410;9.730;2023-11-21T13:07:29;9.00;99.90
47482;DHT22;33219;47.410;9.730;2023-11-21T13:10:06;8.90;99.90
47482;DHT22;33219;47.410;9.730;2023-11-21T13:12:30;8.80;99.90
47482;DHT22;33219;47.410;9.730;2023-11-21T13:15:14;8.70;99.90
47482;DHT22;33219;47.410;9.730;2023-11-21T13:17:45;8.70;99.90
47482;DHT22;33219;47.410;9.730;2023-11-21T13:20:20;8.70;99.90
47482;DHT22;33219;47.410;9.730;2023-11-21T13:25:54;8.60;99.90
47482;DHT22;33219;47.410;9.730;2023-11-21T13:28:24;8.70;99.90
47482;DHT22;33219;47.410;9.730;2023-11-21T13:30:58;8.70;99.90
47482;DHT22;33219;47.410;9.730;2023-11-21T13:33:33;8.80;99.90
47482;DHT22;33219;47.410;9.730;2023-11-21T13:36:08;8.80;99.90
47482;DHT22;33219;47.410;9.730;2023-11-21T13:44:25;8.80;99.90
47482;DHT22;33219;47.410;9.730;2023-11-21T13:46:56;8.80;99.90
47482;DHT22;33219;47.410;9.730;2023-11-21T13:49:48;8.90;99.90
47482;DHT22;33219;47.410;9.730;2023-11-21T13:52:15;8.90;99.90
47482;DHT22;33219;47.410;9.730;2023-11-21T13:54:49;8.90;99.90
47482;DHT22;33219;47.410;9.730;2023-11-21T14:00:19;8.80;99.90
47482;DHT22;33219;47.410;9.730;2023-11-21T14:08:27;8.50;99.90
47482;DHT22;33219;47.410;9.730;2023-11-21T14:16:48;8.20;99.90
47482;DHT22;33219;47.410;9.730;2023-11-21T14:19:35;8.20;99.90
47482;DHT22;33219;47.410;9.730;2023-11-21T14:21:50;8.10;99.90
47482;DHT22;33219;47.410;9.730;2023-11-21T14:24:18;8.00;99.90
47482;DHT22;33219;47.410;9.730;2023-11-21T14:26:51;8.00;99.90
47482;DHT22;33219;47.410;9.730;2023-11-21T14:29:21;7.90;99.90
47482;DHT22;33219;47.410;9.730;2023-11-21T14:31:49;7.90;99.90
47482;DHT22;33219;47.410;9.730;2023-11-21T14:34:21;7.80;99.90
47482;DHT22;33219;47.410;9.730;2023-11-21T14:36:54;7.80;99.90
47482;DHT22;33219;47.410;9.730;2023-11-21T14:39:22;7.80;99.90
47482;DHT22;33219;47.410;9.730;2023-11-21T14:41:51;7.80;99.90
47482;DHT22;33219;47.410;9.730;2023-11-21T14:44:19;7.80;99.90
47482;DHT22;33219;47.410;9.730;2023-11-21T14:46:48;7.90;99.90
47482;DHT22;33219;47.410;9.730;2023-11-21T14:49:28;7.90;99.90
47482;DHT22;33219;47.410;9.730;2023-11-21T14:51:58;7.90;99.90
47482;DHT22;33219;47.410;9.730;2023-11-21T14:54:33;7.80;99.90
47482;DHT22;33219;47.410;9.730;2023-11-21T14:57:09;7.80;99.90
47482;DHT22;33219;47.410;9.730;2023-11-21T14:59:48;7.90;99.90
47482;DHT22;33219;47.410;9.730;2023-11-21T15:02:07;7.90;99.90
47482;DHT22;33219;47.410;9.730;2023-11-21T15:04:43;7.90;99.90
47482;DHT22;33219;47.410;9.730;2023-11-21T15:07:16;7.90;99.90
47482;DHT22;33219;47.410;9.730;2023-11-21T15:09:46;7.90;99.90
47482;DHT22;33219;47.410;9.730;2023-11-21T15:12:21;7.90;99.90
47482;DHT22;33219;47.410;9.730;2023-11-21T15:14:50;7.90;99.90
47482;DHT22;33219;47.410;9.730;2023-11-21T15:17:22;7.90;99.90
47482;DHT22;33219;47.410;9.730;2023-11-21T15:19:56;7.90;99.90
47482;DHT22;33219;47.410;9.730;2023-11-21T15:22:23;7.80;99.90
47482;DHT22;33219;47.410;9.730;2023-11-21T15:24:51;7.80;99.90
47482;DHT22;33219;47.410;9.730;2023-11-21T15:27:19;7.70;99.90
47482;DHT22;33219;47.410;9.730;2023-11-21T15:29:47;7.60;99.90
47482;DHT22;33219;47.410;9.730;2023-11-21T15:32:15;7.60;99.90
47482;DHT22;33219;47.410;9.730;2023-11-21T15:34:42;7.50;99.90
47482;DHT22;33219;47.410;9.730;2023-11-21T15:37:09;7.50;99.90
47482;DHT22;33219;47.410;9.730;2023-11-21T15:39:40;7.50;99.90
47482;DHT22;33219;47.410;9.730;2023-11-21T15:42:07;7.50;99.90
47482;DHT22;33219;47.410;9.730;2023-11-21T15:44:35;7.50;99.90
47482;DHT22;33219;47.410;9.730;2023-11-21T15:47:03;7.40;99.90
47482;DHT22;33219;47.410;9.730;2023-11-21T15:49:31;7.40;99.90
47482;DHT22;33219;47.410;9.730;2023-11-21T15:52:00;7.40;99.90
47482;DHT22;33219;47.410;9.730;2023-11-21T15:54:27;7.40;99.90
47482;DHT22;33219;47.410;9.730;2023-11-21T15:56:55;7.40;99.90
47482;DHT22;33219;47.410;9.730;2023-11-21T15:59:26;7.40;99.90
47482;DHT22;33219;47.410;9.730;2023-11-21T16:01:55;7.40;99.90
47482;DHT22;33219;47.410;9.730;2023-11-21T16:04:23;7.40;99.90
47482;DHT22;33219;47.410;9.730;2023-11-21T16:06:52;7.40;99.90
47482;DHT22;33219;47.410;9.730;2023-11-21T16:09:19;7.40;99.90
47482;DHT22;33219;47.410;9.730;2023-11-21T16:12:00;7.40;99.90
47482;DHT22;33219;47.410;9.730;2023-11-21T16:14:30;7.40;99.90
47482;DHT22;33219;47.410;9.730;2023-11-21T16:17:11;7.40;99.90
47482;DHT22;33219;47.410;9.730;2023-11-21T16:19:39;7.40;99.90
47482;DHT22;33219;47.410;9.730;2023-11-21T16:22:06;7.40;99.90
47482;DHT22;33219;47.410;9.730;2023-11-21T16:24:33;7.40;99.90
47482;DHT22;33219;47.410;9.730;2023-11-21T16:27:00;7.40;99.90
47482;DHT22;33219;47.410;9.730;2023-11-21T16:29:28;7.40;99.90
47482;DHT22;33219;47.410;9.730;2023-11-21T16:31:56;7.30;99.90
47482;DHT22;33219;47.410;9.730;2023-11-21T16:34:23;7.30;99.90
47482;DHT22;33219;47.410;9.730;2023-11-21T16:36:50;7.20;99.90
47482;DHT22;33219;47.410;9.730;2023-11-21T16:39:17;7.20;99.90
47482;DHT22;33219;47.410;9.730;2023-11-21T16:41:47;7.10;99.90
47482;DHT22;33219;47.410;9.730;2023-11-21T16:44:15;7.10;99.90
47482;DHT22;33219;47.410;9.730;2023-11-21T16:46:45;7.00;99.90
47482;DHT22;33219;47.410;9.730;2023-11-21T16:49:14;7.00;99.90
47482;DHT22;33219;47.410;9.730;2023-11-21T16:51:46;7.00;99.90
47482;DHT22;33219;47.410;9.730;2023-11-21T16:54:09;7.00;99.90
47482;DHT22;33219;47.410;9.730;2023-11-21T16:56:36;7.00;99.90
47482;DHT22;33219;47.410;9.730;2023-11-21T16:59:03;7.00;99.90
47482;DHT22;33219;47.410;9.730;2023-11-21T17:01:30;7.00;99.90
47482;DHT22;33219;47.410;9.730;2023-11-21T17:03:57;7.00;99.90
47482;DHT22;33219;47.410;9.730;2023-11-21T17:06:24;7.10;99.90
47482;DHT22;33219;47.410;9.730;2023-11-21T17:08:52;7.00;99.90
47482;DHT22;33219;47.410;9.730;2023-11-21T17:11:19;7.10;99.90
47482;DHT22;33219;47.410;9.730;2023-11-21T17:13:46;7.00;99.90
47482;DHT22;33219;47.410;9.730;2023-11-21T17:16:13;7.00;99.90
47482;DHT22;33219;47.410;9.730;2023-11-21T17:18:40;7.00;99.90
47482;DHT22;33219;47.410;9.730;2023-11-21T17:21:07;7.00;99.90
47482;DHT22;33219;47.410;9.730;2023-11-21T17:23:36;7.00;99.90
47482;DHT22;33219;47.410;9.730;2023-11-21T17:26:03;7.00;99.90
47482;DHT22;33219;47.410;9.730;2023-11-21T17:28:30;7.00;99.90
47482;DHT22;33219;47.410;9.730;2023-11-21T17:30:57;7.00;99.90
47482;DHT22;33219;47.410;9.730;2023-11-21T17:33:24;7.00;99.90
47482;DHT22;33219;47.410;9.730;2023-11-21T17:35:51;7.00;99.90
47482;DHT22;33219;47.410;9.730;2023-11-21T17:38:18;6.90;99.90
47482;DHT22;33219;47.410;9.730;2023-11-21T17:40:45;6.90;99.90
47482;DHT22;33219;47.410;9.730;2023-11-21T17:43:12;6.90;99.90
47482;DHT22;33219;47.410;9.730;2023-11-21T17:45:39;6.90;99.90
47482;DHT22;33219;47.410;9.730;2023-11-21T17:48:05;6.90;99.90
47482;DHT22;33219;47.410;9.730;2023-11-21T17:50:33;6.80;99.90
47482;DHT22;33219;47.410;9.730;2023-11-21T17:53:00;6.80;99.90
47482;DHT22;33219;47.410;9.730;2023-11-21T17:55:27;6.80;99.90
47482;DHT22;33219;47.410;9.730;2023-11-21T17:57:54;6.80;99.90
47482;DHT22;33219;47.410;9.730;2023-11-21T18:00:22;6.80;99.90
47482;DHT22;33219;47.410;9.730;2023-11-21T18:02:51;6.80;99.90
47482;DHT22;33219;47.410;9.730;2023-11-21T18:05:18;6.80;99.90
47482;DHT22;33219;47.410;9.730;2023-11-21T18:07:47;6.80;99.90
47482;DHT22;33219;47.410;9.730;2023-11-21T18:10:13;6.70;99.90
47482;DHT22;33219;47.410;9.730;2023-11-21T18:12:41;6.70;99.90
47482;DHT22;33219;47.410;9.730;2023-11-21T18:15:08;6.80;99.90
47482;DHT22;33219;47.410;9.730;2023-11-21T18:17:35;6.70;99.90
47482;DHT22;33219;47.410;9.730;2023-11-21T18:20:02;6.80;99.90
47482;DHT22;33219;47.410;9.730;2023-11-21T18:22:29;6.70;99.90
47482;DHT22;33219;47.410;9.730;2023-11-21T18:24:56;6.70;99.90
47482;DHT22;33219;47.410;9.730;2023-11-21T18:27:23;6.70;99.90
47482;DHT22;33219;47.410;9.730;2023-11-21T18:29:52;6.70;99.90
47482;DHT22;33219;47.410;9.730;2023-11-21T18:32:18;6.70;99.90
47482;DHT22;33219;47.410;9.730;2023-11-21T18:34:47;6.80;99.90
47482;DHT22;33219;47.410;9.730;2023-11-21T18:37:15;6.70;99.90
47482;DHT22;33219;47.410;9.730;2023-11-21T18:39:43;6.70;99.90
47482;DHT22;33219;47.410;9.730;2023-11-21T18:42:11;6.70;99.90
47482;DHT22;33219;47.410;9.730;2023-11-21T18:44:48;6.70;99.90
47482;DHT22;33219;47.410;9.730;2023-11-21T18:47:15;6.70;99.90
47482;DHT22;33219;47.410;9.730;2023-11-21T18:49:42;6.70;99.90
47482;DHT22;33219;47.410;9.730;2023-11-21T18:52:09;6.70;99.90
47482;DHT22;33219;47.410;9.730;2023-11-21T18:54:38;6.70;99.90
47482;DHT22;33219;47.410;9.730;2023-11-21T18:57:04;6.70;99.90
47482;DHT22;33219;47.410;9.730;2023-11-21T18:59:31;6.70;99.90
47482;DHT22;33219;47.410;9.730;2023-11-21T19:01:59;6.70;99.90
47482;DHT22;33219;47.410;9.730;2023-11-21T19:04:27;6.60;99.90
47482;DHT22;33219;47.410;9.730;2023-11-21T19:06:54;6.60;99.90
47482;DHT22;33219;47.410;9.730;2023-11-21T19:09:23;6.60;99.90
47482;DHT22;33219;47.410;9.730;2023-11-21T19:11:50;6.60;99.90
47482;DHT22;33219;47.410;9.730;2023-11-21T19:14:16;6.60;99.90
47482;DHT22;33219;47.410;9.730;2023-11-21T19:16:43;6.60;99.90
47482;DHT22;33219;47.410;9.730;2023-11-21T19:19:12;6.60;99.90
47482;DHT22;33219;47.410;9.730;2023-11-21T19:21:39;6.60;99.90
47482;DHT22;33219;47.410;9.730;2023-11-21T19:24:06;6.60;99.90
47482;DHT22;33219;47.410;9.730;2023-11-21T19:26:33;6.60;99.90
47482;DHT22;33219;47.410;9.730;2023-11-21T19:29:00;6.60;99.90